Time;durP1;ratioP1;P1;durP2;ratioP2;P2;SDS_P1;SDS_P2;PMS_P1;PMS_P2;Temp;Humidity;BMP_temperature;BMP_pressure;BME280_temperature;BME280_humidity;BME280_pressure;Samples;Min_cycle;Max_cycle;Signal;HPM_P1;HPM_P2
2021/01/21 00:02:09;;;;;;;15.37;14.47;;;10.80;99.90;;;;;;5101498;28;20460;-75
2021/01/21 00:04:35;;;;;;;16.07;14.77;;;10.60;99.90;;;;;;5100030;28;20520;-75
2021/01/21 00:07:02;;;;;;;16.30;15.20;;;10.60;99.90;;;;;;5098072;28;20461;-75
2021/01/21 00:09:28;;;;;;;16.03;14.93;;;10.50;99.90;;;;;;5103003;28;20485;-76
2021/01/21 00:11:54;;;;;;;16.13;14.50;;;10.50;99.90;;;;;;5105609;28;20464;-75
2021/01/21 00:14:21;;;;;;;16.07;15.03;;;10.50;99.90;;;;;;5098050;28;21017;-75
2021/01/21 00:16:49;;;;;;;15.03;14.20;;;10.50;99.90;;;;;;5098413;28;20464;-75
2021/01/21 00:19:15;;;;;;;15.43;14.33;;;10.60;99.90;;;;;;5098213;28;20558;-75
2021/01/21 00:21:43;;;;;;;14.57;13.87;;;10.70;99.90;;;;;;5103114;28;20467;-75
2021/01/21 00:24:10;;;;;;;15.07;14.13;;;10.70;99.90;;;;;;5096958;28;20490;-75
2021/01/21 00:26:36;;;;;;;15.57;14.50;;;10.70;99.90;;;;;;5098088;28;20465;-75
2021/01/21 00:29:04;;;;;;;15.50;14.70;;;10.70;99.90;;;;;;5103976;28;20910;-75
2021/01/21 00:31:31;;;;;;;15.50;14.60;;;10.70;99.90;;;;;;5107129;28;20462;-75
2021/01/21 00:33:57;;;;;;;15.47;14.47;;;10.70;99.90;;;;;;5097700;28;20960;-75
2021/01/21 00:36:25;;;;;;;15.60;14.63;;;10.70;99.90;;;;;;5098921;28;20796;-75
2021/01/21 00:38:53;;;;;;;15.33;14.53;;;10.70;99.90;;;;;;5101436;27;20484;-75
2021/01/21 00:41:19;;;;;;;16.60;15.40;;;10.60;99.90;;;;;;5099136;28;20536;-75
2021/01/21 00:43:46;;;;;;;14.70;13.80;;;10.60;99.90;;;;;;5106305;28;20496;-75
2021/01/21 00:46:13;;;;;;;16.60;15.40;;;10.60;99.90;;;;;;5104201;27;20459;-75
2021/01/21 00:48:42;;;;;;;15.40;14.40;;;10.60;99.90;;;;;;5108945;28;20461;-75
2021/01/21 00:51:09;;;;;;;14.60;13.80;;;10.60;99.90;;;;;;5101219;28;20452;-75
2021/01/21 00:53:35;;;;;;;15.53;14.63;;;10.60;99.90;;;;;;5105343;27;20453;-75
2021/01/21 00:56:02;;;;;;;15.23;14.33;;;10.70;99.90;;;;;;5099336;28;20472;-75
2021/01/21 00:58:28;;;;;;;16.10;14.80;;;10.70;99.90;;;;;;5103779;28;20873;-75
2021/01/21 01:00:55;;;;;;;15.20;14.30;;;10.70;99.90;;;;;;5106767;27;20544;-75
2021/01/21 01:03:22;;;;;;;14.40;13.70;;;10.70;99.90;;;;;;5100730;28;20480;-75
2021/01/21 01:05:49;;;;;;;16.07;14.40;;;10.70;99.90;;;;;;5101459;28;20526;-75
2021/01/21 01:08:15;;;;;;;15.80;14.80;;;10.80;99.90;;;;;;5107453;28;20454;-75
2021/01/21 01:10:41;;;;;;;16.07;14.87;;;10.80;99.90;;;;;;5099827;28;20841;-75
2021/01/21 01:13:07;;;;;;;15.50;14.60;;;10.80;99.90;;;;;;5106753;28;20476;-75
2021/01/21 01:15:36;;;;;;;15.20;14.40;;;10.80;99.90;;;;;;5106546;28;20467;-75
2021/01/21 01:18:03;;;;;;;15.40;14.03;;;10.80;99.90;;;;;;5100577;28;20537;-75
2021/01/21 01:20:29;;;;;;;14.70;13.90;;;10.80;99.90;;;;;;5101958;28;20980;-75
2021/01/21 01:22:56;;;;;;;16.07;14.80;;;10.80;99.90;;;;;;5104822;28;20489;-75
2021/01/21 01:25:23;;;;;;;15.67;14.77;;;10.90;99.90;;;;;;5099177;28;20468;-75
2021/01/21 01:27:50;;;;;;;16.33;15.17;;;10.80;99.90;;;;;;5102010;28;20467;-75
2021/01/21 01:30:18;;;;;;;15.10;14.30;;;10.80;99.90;;;;;;5107379;27;20481;-75
2021/01/21 01:32:46;;;;;;;15.93;14.73;;;10.80;99.90;;;;;;5102202;28;20469;-75
2021/01/21 01:35:13;;;;;;;15.30;14.50;;;10.80;99.90;;;;;;5098651;28;20462;-75
2021/01/21 01:37:39;;;;;;;15.73;14.83;;;10.70;99.90;;;;;;5104674;28;20460;-75
2021/01/21 01:40:08;;;;;;;15.33;14.50;;;10.70;99.90;;;;;;5103786;28;20465;-75
2021/01/21 01:42:34;;;;;;;15.30;14.53;;;10.70;99.90;;;;;;5100771;28;20460;-75
2021/01/21 01:45:01;;;;;;;15.70;14.60;;;10.80;99.90;;;;;;5107104;28;20469;-75
2021/01/21 01:47:28;;;;;;;16.10;14.70;;;10.80;99.90;;;;;;5102843;28;20471;-75
2021/01/21 01:49:55;;;;;;;15.50;14.60;;;10.80;99.90;;;;;;5100136;28;20481;-75
2021/01/21 01:52:22;;;;;;;15.60;14.50;;;10.90;99.90;;;;;;5106104;28;20455;-75
2021/01/21 01:54:51;;;;;;;15.30;14.60;;;10.90;99.90;;;;;;5105070;27;20872;-75
2021/01/21 01:57:18;;;;;;;16.00;15.10;;;11.00;99.90;;;;;;5102439;27;20456;-75
2021/01/21 01:59:46;;;;;;;16.27;14.87;;;11.10;99.90;;;;;;5106748;27;20455;-75
2021/01/21 02:02:12;;;;;;;15.90;14.90;;;11.10;99.90;;;;;;5102731;27;20466;-75
2021/01/21 02:04:39;;;;;;;15.40;14.60;;;11.10;99.90;;;;;;5102988;27;20488;-75
2021/01/21 02:07:06;;;;;;;15.53;14.43;;;11.10;99.90;;;;;;5100856;27;20893;-76
2021/01/21 02:09:33;;;;;;;15.50;14.70;;;11.10;99.90;;;;;;5105406;27;20462;-75
2021/01/21 02:12:13;;;;;;;15.67;14.50;;;11.00;99.90;;;;;;5109688;27;20458;-76
2021/01/21 02:14:49;;;;;;;15.30;14.50;;;11.00;99.90;;;;;;5108604;27;20456;-76
2021/01/21 02:17:22;;;;;;;15.27;14.47;;;11.00;99.90;;;;;;5097724;27;20542;-76
2021/01/21 02:20:17;;;;;;;15.23;14.40;;;11.10;99.90;;;;;;5106645;27;20464;-76
2021/01/21 02:23:20;;;;;;;15.27;14.57;;;11.10;99.90;;;;;;5107343;27;20473;-76
2021/01/21 02:25:47;;;;;;;16.37;15.20;;;11.20;99.90;;;;;;5094472;27;20453;-76
2021/01/21 02:28:57;;;;;;;16.90;15.30;;;11.30;99.90;;;;;;5110325;27;20456;-76
2021/01/21 02:31:38;;;;;;;16.20;15.10;;;11.40;99.90;;;;;;5101568;27;20461;-76
2021/01/21 02:34:10;;;;;;;15.77;14.77;;;11.40;99.90;;;;;;5104818;27;20457;-76
2021/01/21 02:36:40;;;;;;;15.13;14.33;;;11.50;99.90;;;;;;5112650;27;20448;-76
2021/01/21 02:39:10;;;;;;;17.07;14.80;;;11.50;99.90;;;;;;5107705;27;20763;-76
2021/01/21 02:41:36;;;;;;;15.50;14.70;;;11.60;99.90;;;;;;5104924;27;20556;-76
2021/01/21 02:44:03;;;;;;;15.60;14.60;;;11.60;99.90;;;;;;5098942;27;21044;-76
2021/01/21 02:46:30;;;;;;;15.13;14.33;;;11.60;99.90;;;;;;5110169;27;20510;-76
2021/01/21 02:48:58;;;;;;;15.80;14.80;;;11.60;99.90;;;;;;5104411;27;20589;-76
2021/01/21 02:51:37;;;;;;;16.10;14.90;;;11.60;99.90;;;;;;5104673;27;20538;-76
2021/01/21 02:54:15;;;;;;;15.67;14.77;;;11.60;99.90;;;;;;5102010;27;20489;-76
2021/01/21 02:56:45;;;;;;;15.57;14.70;;;11.70;99.90;;;;;;5107573;27;20453;-76
2021/01/21 02:59:17;;;;;;;15.40;14.20;;;11.70;99.90;;;;;;5109133;27;20460;-76
2021/01/21 03:01:45;;;;;;;15.70;14.77;;;11.80;99.90;;;;;;5108246;27;20461;-77
2021/01/21 03:04:13;;;;;;;15.20;14.40;;;11.80;99.90;;;;;;5107312;27;20992;-76
2021/01/21 03:06:42;;;;;;;14.97;14.07;;;11.80;99.90;;;;;;5114598;27;20471;-76
2021/01/21 03:09:09;;;;;;;15.33;14.50;;;11.80;99.90;;;;;;5107975;27;20461;-76
2021/01/21 03:11:35;;;;;;;16.07;15.27;;;11.80;99.90;;;;;;5103239;27;20508;-76
2021/01/21 03:14:01;;;;;;;15.30;14.50;;;11.80;99.90;;;;;;5111716;27;20465;-76
2021/01/21 03:16:28;;;;;;;15.43;14.57;;;11.70;99.90;;;;;;5103218;27;20470;-76
2021/01/21 03:18:54;;;;;;;15.57;14.77;;;11.70;99.90;;;;;;5111085;27;20464;-76
2021/01/21 03:21:21;;;;;;;17.30;15.87;;;11.70;99.90;;;;;;5099284;28;20461;-76
2021/01/21 03:23:48;;;;;;;15.30;14.50;;;11.60;99.90;;;;;;5106353;27;20495;-76
2021/01/21 03:26:14;;;;;;;15.07;14.37;;;11.60;99.90;;;;;;5106011;27;20514;-76
2021/01/21 03:28:41;;;;;;;15.27;14.37;;;11.60;99.90;;;;;;5106726;27;20481;-76
2021/01/21 03:31:07;;;;;;;15.00;14.30;;;11.60;99.90;;;;;;5105859;27;21101;-76
2021/01/21 03:33:35;;;;;;;16.23;15.33;;;11.60;99.90;;;;;;5109689;27;20464;-76
2021/01/21 03:36:01;;;;;;;15.87;14.60;;;11.60;99.90;;;;;;5098592;27;20465;-76
2021/01/21 03:38:27;;;;;;;15.30;14.50;;;11.60;99.90;;;;;;5103825;27;20972;-76
2021/01/21 03:40:56;;;;;;;15.33;14.33;;;11.60;99.90;;;;;;5099267;27;20445;-77
2021/01/21 03:43:22;;;;;;;15.10;14.30;;;11.70;99.90;;;;;;5096602;27;20484;-77
2021/01/21 03:45:49;;;;;;;15.47;14.43;;;11.70;99.90;;;;;;5109174;27;20460;-77
2021/01/21 03:48:18;;;;;;;14.43;13.83;;;11.70;99.90;;;;;;5103166;28;20514;-76
2021/01/21 03:50:44;;;;;;;14.87;14.07;;;11.70;99.90;;;;;;5100650;27;20489;-77
2021/01/21 03:53:11;;;;;;;14.70;14.00;;;11.70;99.90;;;;;;5109757;27;20666;-77
2021/01/21 03:55:39;;;;;;;15.37;14.47;;;11.70;99.90;;;;;;5092811;27;20821;-77
2021/01/21 03:58:06;;;;;;;15.27;14.57;;;11.60;99.90;;;;;;5101578;28;20473;-77
2021/01/21 04:00:32;;;;;;;15.40;14.60;;;11.60;99.90;;;;;;5101678;28;20877;-77
2021/01/21 04:03:01;;;;;;;15.10;14.33;;;11.60;99.90;;;;;;5098306;28;20515;-77
2021/01/21 04:05:27;;;;;;;14.60;13.70;;;11.60;99.90;;;;;;5099330;28;20458;-77
2021/01/21 04:07:53;;;;;;;14.10;13.50;;;11.50;99.90;;;;;;5109120;28;20464;-77
2021/01/21 04:10:20;;;;;;;14.60;14.00;;;11.60;99.90;;;;;;5106282;28;20470;-77
2021/01/21 04:12:46;;;;;;;14.50;13.70;;;11.50;99.90;;;;;;5111340;27;20505;-77
2021/01/21 04:15:14;;;;;;;14.70;13.83;;;11.50;99.90;;;;;;5112755;27;20460;-77
2021/01/21 04:17:40;;;;;;;14.60;13.90;;;11.60;99.90;;;;;;5107583;27;20457;-77
2021/01/21 04:20:07;;;;;;;13.90;13.30;;;11.50;99.90;;;;;;5106682;27;20819;-77
2021/01/21 04:22:33;;;;;;;14.07;13.27;;;11.60;99.90;;;;;;5108485;27;20464;-77
2021/01/21 04:25:00;;;;;;;14.20;13.50;;;11.60;99.90;;;;;;5103829;27;20891;-77
2021/01/21 04:27:26;;;;;;;14.63;13.93;;;11.60;99.90;;;;;;5105414;27;20830;-77
2021/01/21 04:29:53;;;;;;;14.07;13.07;;;11.50;99.90;;;;;;5110045;27;21007;-77
2021/01/21 04:32:20;;;;;;;13.27;12.67;;;11.50;99.90;;;;;;5105385;28;20465;-77
2021/01/21 04:34:46;;;;;;;14.30;13.50;;;11.60;99.90;;;;;;5104822;27;20454;-77
2021/01/21 04:37:13;;;;;;;14.30;13.60;;;11.50;99.90;;;;;;5106357;27;20455;-77
2021/01/21 04:39:40;;;;;;;14.90;14.07;;;11.50;99.90;;;;;;5109414;27;20457;-77
2021/01/21 04:42:08;;;;;;;14.13;13.53;;;11.50;99.90;;;;;;5103992;27;20449;-77
2021/01/21 04:44:34;;;;;;;14.00;13.40;;;11.50;99.90;;;;;;5102229;27;20529;-77
2021/01/21 04:47:01;;;;;;;13.83;13.10;;;11.50;99.90;;;;;;5108270;27;20464;-77
2021/01/21 04:49:29;;;;;;;13.70;13.00;;;11.50;99.90;;;;;;5107566;27;20478;-77
2021/01/21 04:51:58;;;;;;;14.17;13.47;;;11.50;99.90;;;;;;5101169;27;20469;-77
2021/01/21 04:54:29;;;;;;;15.17;14.07;;;11.50;99.90;;;;;;5108662;27;20582;-77
2021/01/21 04:57:00;;;;;;;16.23;15.43;;;11.50;99.90;;;;;;5110305;27;20522;-77
2021/01/21 04:59:30;;;;;;;16.47;15.57;;;11.30;99.90;;;;;;5100205;27;20468;-78
2021/01/21 05:01:57;;;;;;;17.43;16.07;;;11.10;99.90;;;;;;5107753;27;20462;-79
2021/01/21 05:04:24;;;;;;;58.33;31.00;;;11.00;99.90;;;;;;5111233;27;20532;-73
2021/01/21 05:06:53;;;;;;;146.07;135.37;;;10.30;99.90;;;;;;5097721;27;20465;-74
2021/01/21 05:09:20;;;;;;;166.10;153.60;;;7.70;99.90;;;;;;5107225;27;20457;-75
2021/01/21 05:11:49;;;;;;;22.87;21.27;;;7.00;99.90;;;;;;5106800;27;20463;-75
2021/01/21 05:14:16;;;;;;;22.70;21.20;;;6.70;99.90;;;;;;5101610;27;20465;-75
2021/01/21 05:16:43;;;;;;;21.30;20.00;;;6.40;99.90;;;;;;5102747;28;20481;-74
2021/01/21 05:19:14;;;;;;;29.03;27.23;;;6.30;99.90;;;;;;5111065;27;20809;-75
2021/01/21 05:21:40;;;;;;;33.00;30.63;;;6.20;99.90;;;;;;5109529;27;20515;-74
2021/01/21 05:24:10;;;;;;;30.90;29.10;;;6.10;99.90;;;;;;5107635;27;20904;-75
2021/01/21 05:26:37;;;;;;;31.40;29.37;;;6.00;99.90;;;;;;5109023;27;20453;-75
2021/01/21 05:29:04;;;;;;;28.90;26.17;;;5.90;99.90;;;;;;5102649;27;20488;-75
2021/01/21 05:31:32;;;;;;;25.60;24.10;;;5.80;99.90;;;;;;5095515;28;20796;-76
2021/01/21 05:34:00;;;;;;;22.67;21.30;;;5.70;99.90;;;;;;5114609;27;20888;-74
2021/01/21 05:36:27;;;;;;;20.70;19.50;;;5.60;99.90;;;;;;5112845;27;20437;-74
2021/01/21 05:38:59;;;;;;;19.93;18.83;;;5.40;99.90;;;;;;5105527;28;20457;-75
2021/01/21 05:41:26;;;;;;;22.27;20.30;;;5.40;99.90;;;;;;5107879;27;20460;-76
2021/01/21 05:43:53;;;;;;;23.03;21.57;;;5.30;99.90;;;;;;5101449;27;20490;-76
2021/01/21 05:46:20;;;;;;;23.17;21.13;;;5.30;99.90;;;;;;5102404;27;20548;-75
2021/01/21 05:48:47;;;;;;;22.27;20.87;;;5.30;99.90;;;;;;5120220;27;20461;-76
2021/01/21 05:51:16;;;;;;;21.30;19.90;;;5.20;99.90;;;;;;5107245;27;20449;-75
2021/01/21 05:53:43;;;;;;;22.07;20.77;;;5.20;99.90;;;;;;5097918;27;20465;-77
2021/01/21 05:56:10;;;;;;;22.67;21.07;;;5.10;99.90;;;;;;5101090;27;20457;-76
2021/01/21 05:58:39;;;;;;;22.03;20.60;;;5.10;99.90;;;;;;5111620;27;20888;-78
2021/01/21 06:01:06;;;;;;;22.70;20.90;;;5.20;99.90;;;;;;5099743;28;20809;-76
2021/01/21 06:03:34;;;;;;;23.63;22.07;;;5.20;99.90;;;;;;5106196;27;20578;-75
2021/01/21 06:06:05;;;;;;;24.27;22.80;;;5.20;99.90;;;;;;5108973;27;20457;-78
2021/01/21 06:08:31;;;;;;;23.63;22.13;;;5.10;99.90;;;;;;5109300;27;20545;-78
2021/01/21 06:10:58;;;;;;;24.83;23.10;;;5.20;99.90;;;;;;5105438;27;20453;-77
2021/01/21 06:13:26;;;;;;;24.63;23.13;;;5.10;99.90;;;;;;5110972;27;20466;-76
2021/01/21 06:15:55;;;;;;;25.67;24.20;;;5.10;99.90;;;;;;5108176;27;20456;-75
2021/01/21 06:18:21;;;;;;;25.20;23.60;;;5.10;99.90;;;;;;5106566;27;20479;-75
2021/01/21 06:20:48;;;;;;;25.80;23.93;;;5.20;99.90;;;;;;5100887;28;20454;-77
2021/01/21 06:23:19;;;;;;;25.77;23.90;;;5.20;99.90;;;;;;5112630;27;20949;-77
2021/01/21 06:25:47;;;;;;;25.13;23.60;;;5.10;99.90;;;;;;5107717;27;20452;-77
2021/01/21 06:28:14;;;;;;;27.03;24.80;;;5.20;99.90;;;;;;5108242;27;20459;-79
2021/01/21 06:30:42;;;;;;;25.50;23.50;;;5.10;99.90;;;;;;5103060;27;20493;-77
2021/01/21 06:33:12;;;;;;;23.87;22.37;;;5.10;99.90;;;;;;5107606;27;20457;-75
2021/01/21 06:35:41;;;;;;;25.17;23.63;;;5.20;99.90;;;;;;5105504;27;20466;-78
2021/01/21 06:38:11;;;;;;;25.13;23.27;;;5.20;99.90;;;;;;5111969;27;20458;-80
2021/01/21 06:40:41;;;;;;;26.13;23.97;;;5.10;99.90;;;;;;5105562;27;20526;-79
2021/01/21 06:43:12;;;;;;;26.13;23.80;;;5.20;99.90;;;;;;5105375;27;20456;-80
2021/01/21 06:45:39;;;;;;;27.17;24.97;;;5.20;99.90;;;;;;5101786;27;20458;-80
2021/01/21 06:48:09;;;;;;;24.10;22.80;;;5.20;99.90;;;;;;5107965;27;20462;-79
2021/01/21 06:50:37;;;;;;;24.53;22.87;;;5.20;99.90;;;;;;5109045;27;20501;-77
2021/01/21 06:53:06;;;;;;;24.53;22.97;;;5.20;99.90;;;;;;5107114;27;20453;-78
2021/01/21 06:55:35;;;;;;;25.93;24.20;;;5.20;99.90;;;;;;5106880;27;20456;-79
2021/01/21 06:58:02;;;;;;;24.57;23.07;;;5.20;99.90;;;;;;5109163;27;20627;-80
2021/01/21 07:00:44;;;;;;;26.10;23.80;;;5.20;99.90;;;;;;5101045;27;20499;-77
2021/01/21 07:03:32;;;;;;;24.43;23.00;;;5.20;99.90;;;;;;5095161;28;20465;-80
2021/01/21 07:06:01;;;;;;;23.10;21.90;;;5.20;99.90;;;;;;5094557;27;20457;-77
2021/01/21 07:08:28;;;;;;;25.87;24.00;;;5.20;99.90;;;;;;5111517;27;20467;-78
2021/01/21 07:10:58;;;;;;;23.63;22.33;;;5.30;99.90;;;;;;5100462;27;20457;-78
2021/01/21 07:13:28;;;;;;;23.27;21.27;;;5.20;99.90;;;;;;5103402;27;21158;-78
2021/01/21 07:15:59;;;;;;;24.27;22.60;;;5.30;99.90;;;;;;5098094;27;20980;-79
2021/01/21 07:18:32;;;;;;;22.93;21.37;;;5.30;99.90;;;;;;5099625;27;20932;-79
2021/01/21 07:21:16;;;;;;;22.57;21.17;;;5.30;99.90;;;;;;5106351;27;20515;-79
2021/01/21 07:23:45;;;;;;;24.80;22.73;;;5.30;99.90;;;;;;5107209;27;20505;-79
2021/01/21 07:26:30;;;;;;;21.70;20.17;;;5.30;99.90;;;;;;5100567;27;20458;-79
2021/01/21 07:29:06;;;;;;;21.23;19.90;;;5.30;99.90;;;;;;5104750;27;20515;-78
2021/01/21 07:32:06;;;;;;;20.30;19.27;;;5.20;99.90;;;;;;5095466;28;20467;-78
2021/01/21 07:34:48;;;;;;;19.80;18.80;;;5.20;99.90;;;;;;5099129;27;20466;-77
2021/01/21 07:37:24;;;;;;;20.37;19.07;;;5.10;99.90;;;;;;5106046;27;20528;-78
2021/01/21 07:40:04;;;;;;;19.40;18.10;;;5.00;99.90;;;;;;5093849;27;20464;-77
2021/01/21 07:42:51;;;;;;;17.20;16.20;;;5.00;99.90;;;;;;5096936;28;20464;-78
2021/01/21 07:45:29;;;;;;;17.30;16.30;;;5.00;99.90;;;;;;5099877;27;20492;-78
2021/01/21 07:47:58;;;;;;;17.83;16.10;;;5.00;99.90;;;;;;5094908;27;20553;-78
2021/01/21 07:50:37;;;;;;;17.10;15.57;;;5.00;99.90;;;;;;5101963;28;20564;-77
2021/01/21 07:53:06;;;;;;;16.23;15.23;;;4.90;99.90;;;;;;5099282;27;20490;-78
2021/01/21 07:55:34;;;;;;;14.63;13.73;;;5.00;99.90;;;;;;5099848;27;20544;-77
2021/01/21 07:58:21;;;;;;;16.10;14.73;;;5.00;99.90;;;;;;5103514;28;20460;-77
2021/01/21 08:00:49;;;;;;;15.97;14.40;;;4.90;99.90;;;;;;5099549;28;20455;-78
2021/01/21 08:03:26;;;;;;;15.00;13.90;;;4.90;99.90;;;;;;5098656;28;20470;-78
2021/01/21 08:06:05;;;;;;;15.93;14.37;;;4.90;99.90;;;;;;5099067;28;20466;-77
2021/01/21 08:08:31;;;;;;;15.10;13.97;;;4.90;99.90;;;;;;5103725;28;20461;-77
2021/01/21 08:11:02;;;;;;;16.37;14.77;;;4.90;99.90;;;;;;5102285;28;20453;-78
2021/01/21 08:13:29;;;;;;;16.50;15.20;;;4.80;99.90;;;;;;5103590;28;20509;-77
2021/01/21 08:15:55;;;;;;;15.73;14.40;;;4.80;99.90;;;;;;5099660;28;20461;-77
2021/01/21 08:18:23;;;;;;;15.93;14.30;;;4.90;99.90;;;;;;5100048;28;20457;-77
2021/01/21 08:20:49;;;;;;;15.37;13.73;;;4.90;99.90;;;;;;5101382;28;20472;-77
2021/01/21 08:23:16;;;;;;;15.07;13.27;;;4.90;99.90;;;;;;5102569;28;20476;-77
2021/01/21 08:25:44;;;;;;;13.80;12.70;;;4.90;99.90;;;;;;5101399;28;20603;-77
2021/01/21 08:28:11;;;;;;;14.40;12.97;;;4.90;99.90;;;;;;5101337;28;20485;-77
2021/01/21 08:30:38;;;;;;;13.90;12.67;;;4.90;99.90;;;;;;5101391;28;20484;-77
2021/01/21 08:33:08;;;;;;;12.53;11.93;;;5.00;99.90;;;;;;5102953;28;21008;-77
2021/01/21 08:35:37;;;;;;;14.20;13.07;;;5.00;99.90;;;;;;5101805;28;20468;-77
2021/01/21 08:38:06;;;;;;;14.50;13.10;;;5.00;99.90;;;;;;5096697;28;20535;-76
2021/01/21 08:40:36;;;;;;;14.40;13.07;;;5.10;99.90;;;;;;5099236;28;20514;-77
2021/01/21 08:43:05;;;;;;;12.90;12.00;;;5.10;99.90;;;;;;5092715;28;20456;-76
2021/01/21 08:45:32;;;;;;;13.40;12.30;;;5.20;99.90;;;;;;5098071;28;20489;-76
2021/01/21 08:47:58;;;;;;;13.53;12.50;;;5.30;99.90;;;;;;5096294;28;20465;-76
2021/01/21 08:50:35;;;;;;;13.43;11.97;;;5.30;99.90;;;;;;5095171;28;20852;-76
2021/01/21 08:53:04;;;;;;;13.73;12.87;;;5.40;99.90;;;;;;5097066;28;20465;-77
2021/01/21 08:55:43;;;;;;;13.53;12.63;;;5.40;99.90;;;;;;5092187;28;20457;-76
2021/01/21 08:58:11;;;;;;;13.13;12.30;;;5.50;99.90;;;;;;5100216;28;20465;-76
2021/01/21 09:00:39;;;;;;;14.67;13.40;;;5.60;99.90;;;;;;5101245;28;20449;-77
2021/01/21 09:03:06;;;;;;;15.60;14.20;;;5.60;99.90;;;;;;5103405;28;20975;-76
2021/01/21 09:05:34;;;;;;;16.50;14.13;;;5.70;99.90;;;;;;5098098;28;20490;-76
2021/01/21 09:08:05;;;;;;;15.63;14.00;;;5.70;99.90;;;;;;5099151;28;20469;-76
2021/01/21 09:10:43;;;;;;;17.30;14.10;;;5.80;99.90;;;;;;5095633;28;20449;-76
2021/01/21 09:13:10;;;;;;;15.40;14.40;;;5.90;99.90;;;;;;5102121;28;20457;-77
2021/01/21 09:15:55;;;;;;;15.20;14.00;;;5.90;99.90;;;;;;5096626;28;20461;-76
2021/01/21 09:18:23;;;;;;;15.30;14.40;;;6.00;99.90;;;;;;5101714;28;21013;-76
2021/01/21 09:20:50;;;;;;;15.00;14.20;;;6.10;99.90;;;;;;5099479;28;20506;-77
2021/01/21 09:23:20;;;;;;;16.37;14.77;;;6.10;99.90;;;;;;5096896;28;20457;-77
2021/01/21 09:25:48;;;;;;;16.00;15.00;;;6.20;99.90;;;;;;5101934;28;20799;-77
2021/01/21 09:28:16;;;;;;;15.83;14.73;;;6.30;99.90;;;;;;5097433;28;20961;-76
2021/01/21 09:30:46;;;;;;;16.10;15.00;;;6.40;99.90;;;;;;5104074;27;20532;-76
2021/01/21 09:33:12;;;;;;;15.20;14.07;;;6.50;99.90;;;;;;5098272;28;20450;-76
2021/01/21 09:35:40;;;;;;;15.60;14.60;;;6.50;99.90;;;;;;5097890;28;20449;-76
2021/01/21 09:38:06;;;;;;;15.73;14.47;;;6.50;99.90;;;;;;5098856;28;20813;-77
2021/01/21 09:40:34;;;;;;;15.57;14.20;;;6.60;99.90;;;;;;5100177;28;20446;-77
2021/01/21 09:43:04;;;;;;;15.70;14.33;;;6.60;99.90;;;;;;5100419;28;20492;-76
2021/01/21 09:45:31;;;;;;;16.50;14.83;;;6.70;99.90;;;;;;5101337;28;20492;-76
2021/01/21 09:47:59;;;;;;;15.83;14.80;;;6.80;99.90;;;;;;5105842;28;20826;-76
2021/01/21 09:50:27;;;;;;;15.87;14.80;;;7.00;99.90;;;;;;5104688;28;20514;-77
2021/01/21 09:52:54;;;;;;;17.03;15.30;;;7.30;99.90;;;;;;5105661;28;20455;-77
2021/01/21 09:55:20;;;;;;;15.63;14.70;;;7.50;99.90;;;;;;5100439;28;20824;-77
2021/01/21 09:57:47;;;;;;;15.83;14.20;;;7.70;99.90;;;;;;5101509;28;20486;-76
2021/01/21 10:00:16;;;;;;;15.97;14.70;;;7.80;99.90;;;;;;5102762;27;20467;-77
2021/01/21 10:02:43;;;;;;;16.37;15.10;;;7.90;99.90;;;;;;5101158;27;20466;-77
2021/01/21 10:05:10;;;;;;;17.63;16.00;;;7.80;99.90;;;;;;5094721;28;20482;-77
2021/01/21 10:07:37;;;;;;;16.43;15.30;;;7.70;99.90;;;;;;5102357;28;20457;-77
2021/01/21 10:10:03;;;;;;;17.20;15.80;;;7.60;99.90;;;;;;5099595;28;20821;-77
2021/01/21 10:12:30;;;;;;;16.20;15.10;;;7.50;99.90;;;;;;5100187;28;20483;-77
2021/01/21 10:14:58;;;;;;;16.07;15.10;;;7.40;99.90;;;;;;5100199;28;20470;-77
2021/01/21 10:17:25;;;;;;;16.67;15.37;;;7.40;99.90;;;;;;5096318;28;20493;-77
2021/01/21 10:19:52;;;;;;;16.67;15.57;;;7.40;99.90;;;;;;5096144;28;20458;-77
2021/01/21 10:22:19;;;;;;;16.40;15.20;;;7.50;99.90;;;;;;5098486;28;20450;-77
2021/01/21 10:24:46;;;;;;;17.83;15.80;;;7.70;99.90;;;;;;5101996;28;20485;-77
2021/01/21 10:27:12;;;;;;;16.03;14.87;;;7.70;99.90;;;;;;5099343;28;20475;-77
2021/01/21 10:29:39;;;;;;;16.90;15.83;;;7.80;99.90;;;;;;5103833;27;20484;-77
2021/01/21 10:32:08;;;;;;;17.67;16.27;;;7.90;99.90;;;;;;5104352;28;20468;-77
2021/01/21 10:34:35;;;;;;;17.47;16.37;;;7.90;99.90;;;;;;5094591;28;21139;-78
2021/01/21 10:37:02;;;;;;;17.30;16.00;;;7.90;99.90;;;;;;5102611;28;20464;-77
2021/01/21 10:39:29;;;;;;;17.37;16.17;;;8.00;99.90;;;;;;5096247;28;20987;-78
2021/01/21 10:41:56;;;;;;;16.50;15.30;;;8.10;99.90;;;;;;5102201;28;20457;-77
2021/01/21 10:44:22;;;;;;;16.80;15.60;;;8.20;99.90;;;;;;5097330;28;20483;-77
2021/01/21 10:46:48;;;;;;;15.47;14.73;;;8.30;99.90;;;;;;5096309;28;20461;-78
2021/01/21 10:49:15;;;;;;;16.93;15.60;;;8.20;99.90;;;;;;5094769;28;20484;-77
2021/01/21 10:51:42;;;;;;;16.30;15.30;;;8.30;99.90;;;;;;5097762;28;20699;-77
2021/01/21 10:54:10;;;;;;;16.67;15.57;;;8.50;99.90;;;;;;5099692;28;20461;-77
2021/01/21 10:56:36;;;;;;;15.77;14.87;;;8.60;99.90;;;;;;5099897;28;20855;-77
2021/01/21 10:59:05;;;;;;;17.37;15.97;;;8.50;99.90;;;;;;5097619;28;20460;-77
2021/01/21 11:01:32;;;;;;;15.40;14.50;;;8.70;99.90;;;;;;5098706;28;20982;-77
2021/01/21 11:03:58;;;;;;;16.30;15.30;;;8.60;99.90;;;;;;5101448;28;21053;-77
2021/01/21 11:06:24;;;;;;;16.53;15.43;;;8.70;99.90;;;;;;5097306;28;20514;-77
2021/01/21 11:08:52;;;;;;;16.70;15.43;;;8.70;99.90;;;;;;5104536;28;20463;-77
2021/01/21 11:11:18;;;;;;;16.93;15.40;;;8.70;99.90;;;;;;5093766;28;20474;-78
2021/01/21 11:13:44;;;;;;;16.10;15.00;;;8.60;99.90;;;;;;5100908;28;20466;-79
2021/01/21 11:16:12;;;;;;;16.43;15.20;;;8.60;99.90;;;;;;5093844;28;20457;-78
2021/01/21 11:18:38;;;;;;;15.17;14.23;;;8.70;99.90;;;;;;5107708;28;20462;-78
2021/01/21 11:21:06;;;;;;;15.13;14.20;;;8.50;99.90;;;;;;5103859;28;20457;-78
2021/01/21 11:23:33;;;;;;;15.83;14.67;;;8.70;99.90;;;;;;5099025;28;20469;-78
2021/01/21 11:26:00;;;;;;;16.20;14.97;;;8.80;99.90;;;;;;5099541;28;20473;-78
2021/01/21 11:28:26;;;;;;;15.53;14.73;;;8.90;99.90;;;;;;5099913;28;20469;-78
2021/01/21 11:30:53;;;;;;;15.83;14.73;;;9.10;99.90;;;;;;5108832;27;20490;-78
2021/01/21 11:33:21;;;;;;;16.10;14.80;;;9.20;99.90;;;;;;5099944;28;20505;-78
2021/01/21 11:36:10;;;;;;;15.57;14.77;;;9.20;99.90;;;;;;5100143;28;20456;-79
2021/01/21 11:38:38;;;;;;;16.03;15.13;;;9.30;99.90;;;;;;5100167;28;20515;-79
2021/01/21 11:41:07;;;;;;;15.50;14.60;;;9.20;99.90;;;;;;5100435;28;20460;-79
2021/01/21 11:43:34;;;;;;;15.60;14.47;;;9.30;99.90;;;;;;5102751;28;20464;-79
2021/01/21 11:46:00;;;;;;;16.57;15.47;;;9.30;99.90;;;;;;5100127;27;20530;-79
2021/01/21 11:48:34;;;;;;;16.30;15.20;;;9.30;99.90;;;;;;5102737;28;20465;-79
2021/01/21 11:51:01;;;;;;;15.87;14.93;;;9.30;99.90;;;;;;5100046;28;20840;-77
2021/01/21 11:53:27;;;;;;;16.20;15.30;;;9.30;99.90;;;;;;5099422;28;20470;-77
2021/01/21 11:55:53;;;;;;;18.13;16.47;;;9.30;99.90;;;;;;5096227;28;20471;-77
2021/01/21 11:58:20;;;;;;;16.40;15.30;;;9.20;99.90;;;;;;5095070;28;20465;-77
2021/01/21 12:00:47;;;;;;;16.43;15.23;;;9.10;99.90;;;;;;5096495;28;20465;-77
2021/01/21 12:03:14;;;;;;;15.70;14.50;;;9.10;99.90;;;;;;5093232;28;20467;-77
2021/01/21 12:05:42;;;;;;;16.93;15.50;;;9.10;99.90;;;;;;5096991;28;20835;-77
2021/01/21 12:08:09;;;;;;;16.77;15.80;;;9.30;99.90;;;;;;5103222;28;20474;-78
2021/01/21 12:10:36;;;;;;;16.17;15.20;;;9.30;99.90;;;;;;5097893;28;20827;-77
2021/01/21 12:13:02;;;;;;;15.77;14.60;;;9.30;99.90;;;;;;5100801;28;20466;-80
2021/01/21 12:16:05;;;;;;;17.27;15.80;;;9.50;99.90;;;;;;5101498;28;20465;-79
2021/01/21 12:18:40;;;;;;;15.67;14.77;;;9.70;99.90;;;;;;5099960;28;20499;-79
2021/01/21 12:21:07;;;;;;;17.13;15.80;;;9.80;99.90;;;;;;5089239;28;20465;-78
2021/01/21 12:23:38;;;;;;;15.70;14.80;;;10.00;99.90;;;;;;5101682;28;20490;-78
2021/01/21 12:26:11;;;;;;;16.43;15.43;;;10.00;99.90;;;;;;5098403;28;20987;-79
2021/01/21 12:28:47;;;;;;;15.47;14.37;;;10.20;99.90;;;;;;5093681;28;20496;-78
2021/01/21 12:31:14;;;;;;;16.73;15.27;;;10.10;99.90;;;;;;5096815;28;20496;-78
2021/01/21 12:33:40;;;;;;;16.70;15.60;;;10.40;99.90;;;;;;5099740;28;20454;-78
2021/01/21 12:36:07;;;;;;;16.90;15.37;;;10.20;99.90;;;;;;5093155;27;20449;-78
2021/01/21 12:38:34;;;;;;;16.60;15.17;;;10.10;99.90;;;;;;5103996;27;20498;-77
2021/01/21 12:41:02;;;;;;;15.90;15.00;;;10.00;99.90;;;;;;5108003;27;20953;-77
2021/01/21 12:43:28;;;;;;;16.10;15.20;;;9.80;99.90;;;;;;5094823;28;20456;-78